Bryte, California
Current Conditions -  °F | °C
As of 9:53 PM on Saturday 25 Oct 2014 (Local Time) from KSAC Reporting Station
Few Clouds Few Clouds  
Wind Chill: 62°   Ceiling: Unl
Heat Index: 62°   Visibility: 10mi
Dew Point: 55°   Wind: 7mph
Humidity: 78%   Direction: 200°SSW
Pressure: 30.11"   Gusts: NA
Location:  38.5921°N, 121.545°W
Report Text: KSAC 260453Z 20006KT 10SM FEW100 17/13 A3011 RMK AO2 SLP196 T01670128
Loading
Personal Weather Stations






























Interactive Weather Map
Tropical Storm Tracking
New forecast layout! Learn more

10-Day Weather Forecast

Advertisements
Track Severe Weather on mobile